^^
Datos históricos de la estación: Murcia-Puente Tocinos
Diario Informe para Febrero 12, 2019 Unidades:  Ambas    Ingés   Métrico
Diario Semanal Mensual Anual
  Máxima: Mínima: Promedio:
Temperatura: 77.2 °F /  25.1 °C 64.2 °F /  17.9 °C 69.4 °F /  20.8 °C
Punto de rocio: 60.1 °F /  15.6 °C 52.9 °F /  11.6 °C 56.1 °F /  13.4 °C
Humedad: 85% 45.5% 64%
Velocidad viento: 10.2mph /  16.4km/h - 5.3mph /  8.6km/h
Racha viento: 18.4mph /  29.6km/h - -
Viento- - ENE
Presión: 30.2 in /  1023.1 hPa 30.1 in /  1017.7 hPa -
Precipitación: 0 in /  0.0 mm    
 
 
Tabla de datos para Febrero 12, 2019
Hora Temperatura Punto de rocio Presión Viento Velocidad viento Racha viento Humedad Intensidad lluvia(por hora) Nubes
00:04 69.3 °F /  20.7 °C 54 °F /  12.2 °C 30.1in /  1020.4hPa NE 2mph /  3.2km/h 4.6mph /  7.4km/h 58% 0in /  0.0mm
00:09 69.3 °F /  20.7 °C 54.3 °F /  12.4 °C 30.1in /  1020.4hPa NNO 2mph /  3.2km/h 5mph /  8km/h 58.9% 0in /  0.0mm
00:14 69.3 °F /  20.7 °C 54.1 °F /  12.3 °C 30.1in /  1020.4hPa NNE 2mph /  3.2km/h 5.2mph /  8.4km/h 59% 0in /  0.0mm
00:19 69.1 °F /  20.6 °C 54.1 °F /  12.3 °C 30.1in /  1020.5hPa NE 2.3mph /  3.7km/h 5mph /  8km/h 59% 0in /  0.0mm
00:24 68.9 °F /  20.5 °C 54 °F /  12.2 °C 30.1in /  1020.5hPa NE 2.9mph /  4.7km/h 5mph /  8km/h 59% 0in /  0.0mm
00:29 68.9 °F /  20.5 °C 54.3 °F /  12.4 °C 30.1in /  1020.5hPa NE 2.6mph /  4.2km/h 5mph /  8km/h 59.6% 0in /  0.0mm
00:34 68.7 °F /  20.4 °C 54.3 °F /  12.4 °C 30.1in /  1020.5hPa NE 2mph /  3.2km/h 3.6mph /  5.8km/h 60% 0in /  0.0mm
00:39 68.7 °F /  20.4 °C 54.3 °F /  12.4 °C 30.1in /  1020.5hPa NE 1.8mph /  2.9km/h 4mph /  6.4km/h 60% 0in /  0.0mm
00:44 68.5 °F /  20.3 °C 54.1 °F /  12.3 °C 30.1in /  1020.5hPa NE 1.4mph /  2.2km/h 4.6mph /  7.4km/h 60% 0in /  0.0mm
00:49 68.5 °F /  20.3 °C 54.3 °F /  12.4 °C 30.1in /  1020.7hPa NE 1.6mph /  2.5km/h 5mph /  8km/h 60.5% 0in /  0.0mm
00:54 68.5 °F /  20.3 °C 54.5 °F /  12.5 °C 30.1in /  1020.7hPa NE 1.8mph /  2.9km/h 3.1mph /  5km/h 61% 0in /  0.0mm
00:59 68.4 °F /  20.2 °C 54.5 °F /  12.5 °C 30.1in /  1020.7hPa NE 1.6mph /  2.6km/h 3.5mph /  5.6km/h 61% 0in /  0.0mm
01:04 68.4 °F /  20.2 °C 54.3 °F /  12.4 °C 30.2in /  1020.9hPa NE 1.4mph /  2.2km/h 5.8mph /  9.3km/h 61% 0in /  0.0mm
01:09 68.2 °F /  20.1 °C 54.1 °F /  12.3 °C 30.2in /  1020.9hPa NE 1.9mph /  3km/h 6mph /  9.7km/h 61% 0in /  0.0mm
01:14 68.2 °F /  20.1 °C 54.1 °F /  12.3 °C 30.2in /  1020.9hPa NE 2.9mph /  4.7km/h 5mph /  8km/h 61% 0in /  0.0mm
01:19 68.2 °F /  20.1 °C 54.5 °F /  12.5 °C 30.2in /  1021.0hPa NE 2.9mph /  4.7km/h 5.4mph /  8.7km/h 61.7% 0in /  0.0mm
01:24 68 °F /  20 °C 54.5 °F /  12.5 °C 30.2in /  1021.0hPa NE 3.1mph /  5km/h 8.1mph /  13km/h 62% 0in /  0.0mm
01:29 67.8 °F /  19.9 °C 54.3 °F /  12.4 °C 30.2in /  1021.0hPa NE 3.5mph /  5.6km/h 8.1mph /  13km/h 62% 0in /  0.0mm
01:34 67.8 °F /  19.9 °C 54.3 °F /  12.4 °C 30.2in /  1021.2hPa NE 4.3mph /  6.9km/h 8.1mph /  13km/h 62% 0in /  0.0mm
01:39 67.8 °F /  19.9 °C 54.3 °F /  12.4 °C 30.2in /  1021.2hPa NE 4.4mph /  7.1km/h 8mph /  12.9km/h 62% 0in /  0.0mm
01:44 67.8 °F /  19.9 °C 54.5 °F /  12.5 °C 30.2in /  1021.2hPa NE 4.7mph /  7.6km/h 7mph /  11.3km/h 62.5% 0in /  0.0mm
01:49 67.6 °F /  19.8 °C 54.7 °F /  12.6 °C 30.2in /  1021.3hPa NE 4.5mph /  7.2km/h 6mph /  9.7km/h 63% 0in /  0.0mm
01:54 67.6 °F /  19.8 °C 54.7 °F /  12.6 °C 30.2in /  1021.3hPa NE 4mph /  6.5km/h 6mph /  9.7km/h 63% 0in /  0.0mm
01:59 67.5 °F /  19.7 °C 54.7 °F /  12.6 °C 30.2in /  1021.3hPa NE 3.9mph /  6.2km/h 6mph /  9.7km/h 63.6% 0in /  0.0mm
02:04 67.3 °F /  19.6 °C 54.7 °F /  12.6 °C 30.2in /  1021.4hPa NE 3.6mph /  5.8km/h 6mph /  9.7km/h 64% 0in /  0.0mm
02:09 67.1 °F /  19.5 °C 54.7 °F /  12.6 °C 30.2in /  1021.4hPa NNE 3.4mph /  5.5km/h 5.8mph /  9.3km/h 64.6% 0in /  0.0mm
02:14 66.9 °F /  19.4 °C 54.9 °F /  12.7 °C 30.2in /  1021.4hPa NNE 3.1mph /  5km/h 6mph /  9.7km/h 65% 0in /  0.0mm
02:19 66.7 °F /  19.3 °C 55 °F /  12.8 °C 30.2in /  1021.5hPa NNE 3mph /  4.9km/h 5.9mph /  9.5km/h 65.9% 0in /  0.0mm
02:24 66.6 °F /  19.2 °C 54.9 °F /  12.7 °C 30.2in /  1021.5hPa NNE 2.9mph /  4.6km/h 7.4mph /  11.9km/h 66% 0in /  0.0mm
02:29 66.6 °F /  19.2 °C 55.2 °F /  12.9 °C 30.2in /  1021.5hPa NE 3.3mph /  5.3km/h 9.2mph /  14.8km/h 66.9% 0in /  0.0mm
02:34 66.2 °F /  19 °C 55.2 °F /  12.9 °C 30.2in /  1021.5hPa NE 4.3mph /  6.9km/h 9mph /  14.5km/h 67.4% 0in /  0.0mm
02:39 66 °F /  18.9 °C 55.2 °F /  12.9 °C 30.2in /  1021.4hPa NNE 4.2mph /  6.8km/h 8mph /  12.9km/h 68.2% 0in /  0.0mm
02:44 65.8 °F /  18.8 °C 55.6 °F /  13.1 °C 30.2in /  1021.4hPa NNE 4mph /  6.5km/h 8.1mph /  13km/h 69.5% 0in /  0.0mm
02:49 65.7 °F /  18.7 °C 55.9 °F /  13.3 °C 30.2in /  1021.5hPa NE 4.1mph /  6.6km/h 8.7mph /  14km/h 70.9% 0in /  0.0mm
02:54 65.5 °F /  18.6 °C 56.7 °F /  13.7 °C 30.2in /  1021.5hPa NNE 4.3mph /  6.9km/h 10.7mph /  17.2km/h 72.9% 0in /  0.0mm
02:59 65.5 °F /  18.6 °C 57.7 °F /  14.3 °C 30.2in /  1021.5hPa NNE 4.9mph /  7.9km/h 11.5mph /  18.5km/h 76.1% 0in /  0.0mm
03:04 65.5 °F /  18.6 °C 58.6 °F /  14.8 °C 30.2in /  1021.6hPa NE 5.9mph /  9.5km/h 12mph /  19.3km/h 78.5% 0in /  0.0mm
03:09 65.5 °F /  18.6 °C 59 °F /  15 °C 30.2in /  1021.6hPa NE 6.3mph /  10.2km/h 12mph /  19.3km/h 79.9% 0in /  0.0mm
03:14 65.5 °F /  18.6 °C 59.4 °F /  15.2 °C 30.2in /  1021.6hPa NE 7.4mph /  11.9km/h 12.3mph /  19.8km/h 80.9% 0in /  0.0mm
03:19 65.5 °F /  18.6 °C 59.5 °F /  15.3 °C 30.2in /  1021.6hPa NE 7.2mph /  11.6km/h 12mph /  19.3km/h 81.3% 0in /  0.0mm
03:24 65.1 °F /  18.4 °C 59.5 °F /  15.3 °C 30.2in /  1021.6hPa NE 6.9mph /  11.1km/h 10.4mph /  16.7km/h 82% 0in /  0.0mm
03:29 65.1 °F /  18.4 °C 59.5 °F /  15.3 °C 30.2in /  1021.6hPa NE 6.4mph /  10.3km/h 10mph /  16.1km/h 82% 0in /  0.0mm
03:34 64.9 °F /  18.3 °C 59.5 °F /  15.3 °C 30.2in /  1021.7hPa NE 5.4mph /  8.7km/h 9.7mph /  15.6km/h 82.4% 0in /  0.0mm
03:39 64.9 °F /  18.3 °C 59.7 °F /  15.4 °C 30.2in /  1021.7hPa NNE 5.5mph /  8.9km/h 10mph /  16.1km/h 83% 0in /  0.0mm
03:44 64.8 °F /  18.2 °C 59.5 °F /  15.3 °C 30.2in /  1021.7hPa NE 5.9mph /  9.5km/h 8.1mph /  13km/h 83% 0in /  0.0mm
03:49 64.8 °F /  18.2 °C 59.4 °F /  15.2 °C 30.2in /  1021.8hPa NNE 5.5mph /  8.9km/h 8mph /  12.9km/h 83% 0in /  0.0mm
03:54 64.6 °F /  18.1 °C 59.4 °F /  15.2 °C 30.2in /  1021.8hPa NE 4.7mph /  7.6km/h 7mph /  11.3km/h 83% 0in /  0.0mm
03:59 64.6 °F /  18.1 °C 59.4 °F /  15.2 °C 30.2in /  1021.8hPa NE 4.7mph /  7.6km/h 8.1mph /  13km/h 83.6% 0in /  0.0mm
04:04 64.4 °F /  18 °C 59.5 °F /  15.3 °C 30.2in /  1021.9hPa NE 4.7mph /  7.6km/h 8mph /  12.9km/h 84% 0in /  0.0mm
04:09 64.4 °F /  18 °C 59.4 °F /  15.2 °C 30.2in /  1021.9hPa NE 4.6mph /  7.4km/h 7mph /  11.3km/h 84% 0in /  0.0mm
04:14 64.2 °F /  17.9 °C 59.4 °F /  15.2 °C 30.2in /  1021.9hPa NNE 4.3mph /  6.9km/h 6.2mph /  10km/h 84% 0in /  0.0mm
04:19 64.2 °F /  17.9 °C 59.4 °F /  15.2 °C 30.2in /  1021.9hPa NNE 4mph /  6.4km/h 6mph /  9.7km/h 84% 0in /  0.0mm
04:24 64.2 °F /  17.9 °C 59.4 °F /  15.2 °C 30.2in /  1021.9hPa NNE 3.1mph /  5km/h 6mph /  9.7km/h 84% 0in /  0.0mm
04:29 64.2 °F /  17.9 °C 59.4 °F /  15.2 °C 30.2in /  1021.9hPa NNE 3mph /  4.9km/h 6.2mph /  10km/h 84% 0in /  0.0mm
04:34 64.4 °F /  18 °C 59.5 °F /  15.3 °C 30.2in /  1021.9hPa NE 2.9mph /  4.7km/h 6.9mph /  11.1km/h 84.2% 0in /  0.0mm
04:39 64.6 °F /  18.1 °C 59.9 °F /  15.5 °C 30.2in /  1021.9hPa NE 2.9mph /  4.7km/h 7mph /  11.3km/h 84.7% 0in /  0.0mm
04:44 64.6 °F /  18.1 °C 59.5 °F /  15.3 °C 30.2in /  1021.9hPa NE 2.9mph /  4.7km/h 5.9mph /  9.5km/h 84% 0in /  0.0mm
04:49 64.6 °F /  18.1 °C 59.7 °F /  15.4 °C 30.2in /  1022.0hPa NE 2.9mph /  4.7km/h 6.4mph /  10.3km/h 84% 0in /  0.0mm
04:54 64.8 °F /  18.2 °C 59.9 °F /  15.5 °C 30.2in /  1022.0hPa NE 3.1mph /  5km/h 7mph /  11.3km/h 84.1% 0in /  0.0mm
04:59 64.8 °F /  18.2 °C 59.9 °F /  15.5 °C 30.2in /  1022.0hPa NE 3.3mph /  5.3km/h 7mph /  11.3km/h 84.3% 0in /  0.0mm
05:04 64.8 °F /  18.2 °C 59.7 °F /  15.4 °C 30.2in /  1022.1hPa NE 3.6mph /  5.8km/h 7.6mph /  12.2km/h 84% 0in /  0.0mm
05:09 64.8 °F /  18.2 °C 59.7 °F /  15.4 °C 30.2in /  1022.1hPa NE 3.8mph /  6.1km/h 8.1mph /  13km/h 84% 0in /  0.0mm
05:14 64.8 °F /  18.2 °C 59.9 °F /  15.5 °C 30.2in /  1022.1hPa NE 4.3mph /  6.9km/h 8mph /  12.9km/h 84% 0in /  0.0mm
05:19 64.9 °F /  18.3 °C 60.1 °F /  15.6 °C 30.2in /  1022.2hPa NE 4.2mph /  6.8km/h 7mph /  11.3km/h 84% 0in /  0.0mm
05:24 64.9 °F /  18.3 °C 60.1 °F /  15.6 °C 30.2in /  1022.2hPa NE 4mph /  6.5km/h 7.4mph /  11.9km/h 84% 0in /  0.0mm
05:29 64.9 °F /  18.3 °C 60.1 °F /  15.6 °C 30.2in /  1022.2hPa NE 4.3mph /  7km/h 8.7mph /  14km/h 84% 0in /  0.0mm
05:34 64.9 °F /  18.3 °C 60.1 °F /  15.6 °C 30.2in /  1022.2hPa NE 5.2mph /  8.4km/h 9.2mph /  14.8km/h 84% 0in /  0.0mm
05:39 64.9 °F /  18.3 °C 60.1 °F /  15.6 °C 30.2in /  1022.2hPa NE 5.2mph /  8.4km/h 9.7mph /  15.6km/h 84% 0in /  0.0mm
05:44 64.9 °F /  18.3 °C 59.7 °F /  15.4 °C 30.2in /  1022.2hPa NE 5.2mph /  8.4km/h 10mph /  16.1km/h 83.3% 0in /  0.0mm
05:49 64.9 °F /  18.3 °C 59.7 °F /  15.4 °C 30.2in /  1022.2hPa NE 5mph /  8.1km/h 8.1mph /  13km/h 83% 0in /  0.0mm
05:54 64.9 °F /  18.3 °C 59.7 °F /  15.4 °C 30.2in /  1022.2hPa NNE 4.7mph /  7.6km/h 8.1mph /  13km/h 83% 0in /  0.0mm
05:59 64.9 °F /  18.3 °C 59.7 °F /  15.4 °C 30.2in /  1022.2hPa NNE 4.5mph /  7.3km/h 8.1mph /  13km/h 83% 0in /  0.0mm
06:04 64.9 °F /  18.3 °C 59.7 °F /  15.4 °C 30.2in /  1022.2hPa NNE 4.3mph /  6.9km/h 9.7mph /  15.6km/h 83% 0in /  0.0mm
06:09 64.9 °F /  18.3 °C 59.7 °F /  15.4 °C 30.2in /  1022.2hPa NNE 4.7mph /  7.5km/h 10mph /  16.1km/h 83.4% 0in /  0.0mm
06:14 64.9 °F /  18.3 °C 60.1 °F /  15.6 °C 30.2in /  1022.2hPa NE 5.4mph /  8.7km/h 10mph /  16.1km/h 84% 0in /  0.0mm
06:19 64.8 °F /  18.2 °C 59.9 °F /  15.5 °C 30.2in /  1022.2hPa NE 5.3mph /  8.6km/h 9mph /  14.5km/h 84% 0in /  0.0mm
06:24 64.8 °F /  18.2 °C 59.7 °F /  15.4 °C 30.2in /  1022.2hPa NE 5.2mph /  8.4km/h 10mph /  16.1km/h 84% 0in /  0.0mm
06:29 64.8 °F /  18.2 °C 60.1 °F /  15.6 °C 30.2in /  1022.2hPa NE 5.4mph /  8.7km/h 11.8mph /  19km/h 84.7% 0in /  0.0mm
06:34 64.6 °F /  18.1 °C 60.1 °F /  15.6 °C 30.2in /  1022.2hPa NE 5.9mph /  9.5km/h 12.7mph /  20.4km/h 85% 0in /  0.0mm
06:39 64.8 °F /  18.2 °C 60.1 °F /  15.6 °C 30.2in /  1022.2hPa NE 6.4mph /  10.3km/h 13mph /  20.9km/h 85% 0in /  0.0mm
06:44 64.8 °F /  18.2 °C 60.1 °F /  15.6 °C 30.2in /  1022.2hPa NE 7.6mph /  12.2km/h 12.7mph /  20.4km/h 85% 0in /  0.0mm
06:49 64.8 °F /  18.2 °C 60.1 °F /  15.6 °C 30.2in /  1022.4hPa NE 7.3mph /  11.7km/h 13mph /  20.9km/h 85% 0in /  0.0mm
06:54 64.8 °F /  18.2 °C 60.1 °F /  15.6 °C 30.2in /  1022.4hPa NE 6.4mph /  10.3km/h 12.7mph /  20.4km/h 84.7% 0in /  0.0mm
06:59 64.8 °F /  18.2 °C 59.7 °F /  15.4 °C 30.2in /  1022.4hPa NE 6.4mph /  10.3km/h 13mph /  20.9km/h 84% 0in /  0.0mm
07:04 64.8 °F /  18.2 °C 59.7 °F /  15.4 °C 30.2in /  1022.4hPa NE 6.4mph /  10.3km/h 12mph /  19.3km/h 84% 0in /  0.0mm
07:09 64.8 °F /  18.2 °C 59.7 °F /  15.4 °C 30.2in /  1022.4hPa NE 6.5mph /  10.5km/h 17.3mph /  27.8km/h 83.8% 0in /  0.0mm
07:14 64.8 °F /  18.2 °C 59.4 °F /  15.2 °C 30.2in /  1022.4hPa NE 6.9mph /  11.1km/h 17.3mph /  27.8km/h 83% 0in /  0.0mm
07:19 64.8 °F /  18.2 °C 59.4 °F /  15.2 °C 30.2in /  1022.5hPa NE 7.6mph /  12.2km/h 16.1mph /  25.9km/h 83% 0in /  0.0mm
07:24 64.8 °F /  18.2 °C 59.2 °F /  15.1 °C 30.2in /  1022.5hPa NE 9.2mph /  14.8km/h 15.2mph /  24.5km/h 82.2% 0in /  0.0mm
07:29 64.6 °F /  18.1 °C 58.8 °F /  14.9 °C 30.2in /  1022.5hPa NE 9.2mph /  14.8km/h 15mph /  24.1km/h 81.6% 0in /  0.0mm
07:34 64.8 °F /  18.2 °C 58.6 °F /  14.8 °C 30.2in /  1022.7hPa NE 9.2mph /  14.8km/h 17.5mph /  28.2km/h 81% 0in /  0.0mm
07:39 64.6 °F /  18.1 °C 58.6 °F /  14.8 °C 30.2in /  1022.7hPa NE 8.9mph /  14.4km/h 17mph /  27.4km/h 81% 0in /  0.0mm
07:44 64.6 °F /  18.1 °C 58.6 °F /  14.8 °C 30.2in /  1022.7hPa NE 8.5mph /  13.7km/h 13.5mph /  21.7km/h 81% 0in /  0.0mm
07:49 64.4 °F /  18 °C 58.8 °F /  14.9 °C 30.2in /  1022.7hPa NE 8.2mph /  13.2km/h 14mph /  22.5km/h 81.8% 0in /  0.0mm
07:54 64.4 °F /  18 °C 58.8 °F /  14.9 °C 30.2in /  1022.7hPa NE 7.4mph /  11.9km/h 14mph /  22.5km/h 82% 0in /  0.0mm
07:59 64.4 °F /  18 °C 58.8 °F /  14.9 °C 30.2in /  1022.7hPa NE 7mph /  11.2km/h 11.5mph /  18.5km/h 82% 0in /  0.0mm
08:04 64.4 °F /  18 °C 59 °F /  15 °C 30.2in /  1022.8hPa NE 6.2mph /  10km/h 12mph /  19.3km/h 82.4% 0in /  0.0mm
08:09 64.6 °F /  18.1 °C 59 °F /  15 °C 30.2in /  1022.8hPa NE 6mph /  9.6km/h 10mph /  16.1km/h 82.2% 0in /  0.0mm
08:14 64.6 °F /  18.1 °C 59 °F /  15 °C 30.2in /  1022.8hPa NE 5.4mph /  8.7km/h 9.7mph /  15.6km/h 82.2% 0in /  0.0mm
08:19 64.6 °F /  18.1 °C 59.2 °F /  15.1 °C 30.2in /  1022.9hPa NE 5.5mph /  8.9km/h 11.8mph /  19km/h 83% 0in /  0.0mm
08:24 64.4 °F /  18 °C 59 °F /  15 °C 30.2in /  1022.9hPa NE 5.9mph /  9.5km/h 12mph /  19.3km/h 82.7% 0in /  0.0mm
08:29 64.4 °F /  18 °C 59.2 °F /  15.1 °C 30.2in /  1022.9hPa NE 6mph /  9.7km/h 12mph /  19.3km/h 83% 0in /  0.0mm
08:34 64.6 °F /  18.1 °C 59 °F /  15 °C 30.2in /  1023.0hPa NNE 6.4mph /  10.3km/h 10mph /  16.1km/h 82.2% 0in /  0.0mm
08:39 64.8 °F /  18.2 °C 59 °F /  15 °C 30.2in /  1023.0hPa NE 6.1mph /  9.8km/h 10mph /  16.1km/h 82% 0in /  0.0mm
08:44 64.9 °F /  18.3 °C 59 °F /  15 °C 30.2in /  1023.0hPa NE 5.4mph /  8.7km/h 10.4mph /  16.7km/h 81.3% 0in /  0.0mm
08:49 64.9 °F /  18.3 °C 59 °F /  15 °C 30.2in /  1023.0hPa NNE 5.5mph /  8.9km/h 10mph /  16.1km/h 81% 0in /  0.0mm
08:54 64.9 °F /  18.3 °C 59 °F /  15 °C 30.2in /  1023.0hPa NE 5.9mph /  9.5km/h 9.2mph /  14.8km/h 80.6% 0in /  0.0mm
08:59 65.3 °F /  18.5 °C 59 °F /  15 °C 30.2in /  1023.0hPa NNE 6mph /  9.7km/h 12.7mph /  20.4km/h 80% 0in /  0.0mm
09:04 65.7 °F /  18.7 °C 59 °F /  15 °C 30.2in /  1023.0hPa NE 6.2mph /  10km/h 13mph /  20.9km/h 79.5% 0in /  0.0mm
09:09 65.7 °F /  18.7 °C 59 °F /  15 °C 30.2in /  1023.0hPa NE 6.3mph /  10.1km/h 12mph /  19.3km/h 78.8% 0in /  0.0mm
09:14 65.7 °F /  18.7 °C 58.6 °F /  14.8 °C 30.2in /  1023.0hPa ENE 6.4mph /  10.3km/h 11mph /  17.7km/h 78% 0in /  0.0mm
09:19 66.2 °F /  19 °C 58.6 °F /  14.8 °C 30.2in /  1023.1hPa NNE 6mph /  9.7km/h 10.7mph /  17.2km/h 76.7% 0in /  0.0mm
09:24 66.4 °F /  19.1 °C 58.5 °F /  14.7 °C 30.2in /  1023.1hPa NNE 5.2mph /  8.4km/h 11.2mph /  18km/h 75.8% 0in /  0.0mm
09:29 66 °F /  18.9 °C 57.7 °F /  14.3 °C 30.2in /  1023.1hPa NNE 5.5mph /  8.8km/h 11mph /  17.7km/h 74.9% 0in /  0.0mm
09:34 65.8 °F /  18.8 °C 57.6 °F /  14.2 °C 30.2in /  1023.1hPa NE 6.2mph /  10km/h 10mph /  16.1km/h 74.8% 0in /  0.0mm
09:39 65.8 °F /  18.8 °C 58.1 °F /  14.5 °C 30.2in /  1023.1hPa NNE 5.8mph /  9.3km/h 8mph /  12.9km/h 76% 0in /  0.0mm
09:44 66.2 °F /  19 °C 58.3 °F /  14.6 °C 30.2in /  1023.1hPa NNE 4.7mph /  7.6km/h 9.2mph /  14.8km/h 75.5% 0in /  0.0mm
09:49 66.7 °F /  19.3 °C 57.9 °F /  14.4 °C 30.2in /  1023.1hPa ENE 4.8mph /  7.8km/h 10mph /  16.1km/h 73.1% 0in /  0.0mm
09:54 67.1 °F /  19.5 °C 57.6 °F /  14.2 °C 30.2in /  1023.0hPa NNE 5.2mph /  8.4km/h 10.4mph /  16.7km/h 71.5% 0in /  0.0mm
09:59 67.1 °F /  19.5 °C 57.7 °F /  14.3 °C 30.2in /  1023.0hPa NNE 5.2mph /  8.4km/h 10mph /  16.1km/h 72% 0in /  0.0mm
10:04 67.3 °F /  19.6 °C 57.9 °F /  14.4 °C 30.2in /  1023.0hPa NE 5.2mph /  8.4km/h 7mph /  11.3km/h 72% 0in /  0.0mm
10:09 67.5 °F /  19.7 °C 58.1 °F /  14.5 °C 30.2in /  1023.0hPa NNE 4.7mph /  7.6km/h 7mph /  11.3km/h 72% 0in /  0.0mm
10:14 67.6 °F /  19.8 °C 58.3 °F /  14.6 °C 30.2in /  1023.0hPa ENE 3.6mph /  5.8km/h 7mph /  11.3km/h 72% 0in /  0.0mm
10:19 68.5 °F /  20.3 °C 58.5 °F /  14.7 °C 30.2in /  1023.0hPa Este 3.4mph /  5.5km/h 8.1mph /  13km/h 70.3% 0in /  0.0mm
10:24 68.7 °F /  20.4 °C 57.7 °F /  14.3 °C 30.2in /  1022.9hPa ENE 2.9mph /  4.7km/h 8.1mph /  13km/h 67.8% 0in /  0.0mm
10:29 69.1 °F /  20.6 °C 57.7 °F /  14.3 °C 30.2in /  1022.9hPa NE 3.2mph /  5.2km/h 9.2mph /  14.8km/h 67.3% 0in /  0.0mm
10:34 69.1 °F /  20.6 °C 57.6 °F /  14.2 °C 30.2in /  1022.9hPa NE 4mph /  6.5km/h 9.7mph /  15.6km/h 66.5% 0in /  0.0mm
10:39 68.9 °F /  20.5 °C 57.4 °F /  14.1 °C 30.2in /  1022.9hPa NE 4.3mph /  7km/h 10mph /  16.1km/h 66.9% 0in /  0.0mm
10:44 68.7 °F /  20.4 °C 57.7 °F /  14.3 °C 30.2in /  1022.9hPa NNE 5.2mph /  8.4km/h 9mph /  14.5km/h 68% 0in /  0.0mm
10:49 68.7 °F /  20.4 °C 57.7 °F /  14.3 °C 30.2in /  1022.9hPa NNE 4.7mph /  7.6km/h 7mph /  11.3km/h 68% 0in /  0.0mm
10:54 68.7 °F /  20.4 °C 57.7 °F /  14.3 °C 30.2in /  1022.9hPa NE 3.6mph /  5.8km/h 6.4mph /  10.3km/h 68% 0in /  0.0mm
10:59 68.5 °F /  20.3 °C 57.2 °F /  14 °C 30.2in /  1022.9hPa NE 3.4mph /  5.5km/h 10.7mph /  17.2km/h 67% 0in /  0.0mm
11:04 68.5 °F /  20.3 °C 57.6 °F /  14.2 °C 30.2in /  1022.9hPa NO 3.1mph /  5km/h 11mph /  17.7km/h 68% 0in /  0.0mm
11:09 69.1 °F /  20.6 °C 57.2 °F /  14 °C 30.2in /  1022.7hPa NNE 3.2mph /  5.2km/h 9.2mph /  14.8km/h 65.7% 0in /  0.0mm
11:14 69.3 °F /  20.7 °C 57 °F /  13.9 °C 30.2in /  1022.7hPa ENE 3.6mph /  5.8km/h 9.7mph /  15.6km/h 64.9% 0in /  0.0mm
11:19 69.3 °F /  20.7 °C 56.8 °F /  13.8 °C 30.2in /  1022.7hPa NE 4.2mph /  6.8km/h 10mph /  16.1km/h 64.6% 0in /  0.0mm
11:24 69.3 °F /  20.7 °C 56.8 °F /  13.8 °C 30.2in /  1022.6hPa North 5.9mph /  9.5km/h 10mph /  16.1km/h 64.5% 0in /  0.0mm
11:29 69.6 °F /  20.9 °C 56.8 °F /  13.8 °C 30.2in /  1022.6hPa NNE 5.7mph /  9.2km/h 13.7mph /  22km/h 63.8% 0in /  0.0mm
11:34 70 °F /  21.1 °C 57.2 °F /  14 °C 30.2in /  1022.6hPa NE 5.2mph /  8.4km/h 14mph /  22.5km/h 63.9% 0in /  0.0mm
11:39 70.2 °F /  21.2 °C 57 °F /  13.9 °C 30.2in /  1022.6hPa ENE 5.3mph /  8.5km/h 12mph /  19.3km/h 63% 0in /  0.0mm
11:44 70.5 °F /  21.4 °C 57 °F /  13.9 °C 30.2in /  1022.6hPa NO 5.4mph /  8.7km/h 7mph /  11.3km/h 62% 0in /  0.0mm
11:49 71.2 °F /  21.8 °C 56.8 °F /  13.8 °C 30.2in /  1022.6hPa NNE 4.7mph /  7.6km/h 8.5mph /  13.7km/h 60.6% 0in /  0.0mm
11:54 71.2 °F /  21.8 °C 56.3 °F /  13.5 °C 30.2in /  1022.6hPa NE 3.1mph /  5km/h 10.4mph /  16.7km/h 59.2% 0in /  0.0mm
11:59 71.2 °F /  21.8 °C 56.1 °F /  13.4 °C 30.2in /  1022.6hPa NE 4.3mph /  6.9km/h 14mph /  22.5km/h 59% 0in /  0.0mm
12:04 71.1 °F /  21.7 °C 56.3 °F /  13.5 °C 30.2in /  1022.6hPa NNE 6.2mph /  10km/h 14mph /  22.5km/h 59.5% 0in /  0.0mm
12:09 71.2 °F /  21.8 °C 55.9 °F /  13.3 °C 30.2in /  1022.4hPa ENE 6mph /  9.6km/h 10.4mph /  16.7km/h 58.6% 0in /  0.0mm
12:14 71.2 °F /  21.8 °C 55.9 °F /  13.3 °C 30.2in /  1022.4hPa ENE 5.4mph /  8.7km/h 10mph /  16.1km/h 58.4% 0in /  0.0mm
12:19 71.6 °F /  22 °C 55.9 °F /  13.3 °C 30.2in /  1022.4hPa ESE 5.3mph /  8.6km/h 9.7mph /  15.6km/h 57.7% 0in /  0.0mm
12:24 71.8 °F /  22.1 °C 55.9 °F /  13.3 °C 30.2in /  1022.4hPa ESE 5.2mph /  8.4km/h 10mph /  16.1km/h 57.6% 0in /  0.0mm
12:29 71.4 °F /  21.9 °C 55.9 °F /  13.3 °C 30.2in /  1022.4hPa Este 5mph /  8.1km/h 9mph /  14.5km/h 58% 0in /  0.0mm
12:34 71.6 °F /  22 °C 55.9 °F /  13.3 °C 30.2in /  1022.4hPa Este 4.7mph /  7.6km/h 9.7mph /  15.6km/h 58% 0in /  0.0mm
12:39 71.4 °F /  21.9 °C 55.8 °F /  13.2 °C 30.2in /  1022.3hPa NE 4.7mph /  7.6km/h 10mph /  16.1km/h 57.5% 0in /  0.0mm
12:44 71.6 °F /  22 °C 55.8 °F /  13.2 °C 30.2in /  1022.3hPa ENE 4.7mph /  7.6km/h 7mph /  11.3km/h 57.5% 0in /  0.0mm
12:49 72 °F /  22.2 °C 55.9 °F /  13.3 °C 30.2in /  1022.3hPa ESE 4mph /  6.4km/h 6.9mph /  11.1km/h 57% 0in /  0.0mm
12:54 72.1 °F /  22.3 °C 55.9 °F /  13.3 °C 30.2in /  1022.2hPa Este 2.4mph /  3.9km/h 7mph /  11.3km/h 56.4% 0in /  0.0mm
12:59 72.3 °F /  22.4 °C 55.4 °F /  13 °C 30.2in /  1022.2hPa ESE 3.3mph /  5.3km/h 9.2mph /  14.8km/h 55.4% 0in /  0.0mm
13:04 72.3 °F /  22.4 °C 54.9 °F /  12.7 °C 30.2in /  1022.2hPa SSE 4.3mph /  6.9km/h 9mph /  14.5km/h 54.4% 0in /  0.0mm
13:09 72.1 °F /  22.3 °C 55 °F /  12.8 °C 30.2in /  1022.1hPa SSE 4.3mph /  6.9km/h 8.1mph /  13km/h 54.9% 0in /  0.0mm
13:14 72.3 °F /  22.4 °C 55.2 °F /  12.9 °C 30.2in /  1022.1hPa NE 4.3mph /  6.9km/h 8mph /  12.9km/h 55% 0in /  0.0mm
13:19 72.3 °F /  22.4 °C 55.2 °F /  12.9 °C 30.2in /  1022.1hPa NE 4.3mph /  6.9km/h 7.4mph /  11.9km/h 54.9% 0in /  0.0mm
13:24 72.7 °F /  22.6 °C 55.2 °F /  12.9 °C 30.2in /  1021.8hPa North 4.3mph /  6.9km/h 7mph /  11.3km/h 54.2% 0in /  0.0mm
13:29 72.9 °F /  22.7 °C 55 °F /  12.8 °C 30.2in /  1021.8hPa ONO 3.8mph /  6.1km/h 6mph /  9.7km/h 53.4% 0in /  0.0mm
13:34 73.2 °F /  22.9 °C 54.7 °F /  12.6 °C 30.2in /  1021.8hPa ESE 2.4mph /  3.9km/h 5.4mph /  8.7km/h 52.2% 0in /  0.0mm
13:39 73.8 °F /  23.2 °C 54.7 °F /  12.6 °C 30.2in /  1021.5hPa Sur 2.4mph /  3.9km/h 8.1mph /  13km/h 51.3% 0in /  0.0mm
13:44 74.1 °F /  23.4 °C 54.7 °F /  12.6 °C 30.2in /  1021.5hPa Sur 2.4mph /  3.9km/h 8mph /  12.9km/h 50.7% 0in /  0.0mm
13:49 74.5 °F /  23.6 °C 54.3 °F /  12.4 °C 30.2in /  1021.5hPa SSO 2.6mph /  4.2km/h 10.4mph /  16.7km/h 49.3% 0in /  0.0mm
13:54 74.3 °F /  23.5 °C 54 °F /  12.2 °C 30.2in /  1021.4hPa OSO 3.1mph /  5km/h 10mph /  16.1km/h 49% 0in /  0.0mm
13:59 74.7 °F /  23.7 °C 54.3 °F /  12.4 °C 30.2in /  1021.4hPa SO 3mph /  4.9km/h 5.2mph /  8.4km/h 49% 0in /  0.0mm
14:04 75.2 °F /  24 °C 54.3 °F /  12.4 °C 30.2in /  1021.4hPa Oeste 2.9mph /  4.6km/h 5.9mph /  9.5km/h 48.1% 0in /  0.0mm
14:09 75.6 °F /  24.2 °C 54.5 °F /  12.5 °C 30.2in /  1021.3hPa North 2.9mph /  4.7km/h 9.7mph /  15.6km/h 48.1% 0in /  0.0mm
14:14 75.4 °F /  24.1 °C 54.3 °F /  12.4 °C 30.2in /  1021.2hPa NNE 3.1mph /  5km/h 10mph /  16.1km/h 47.9% 0in /  0.0mm
14:19 75.2 °F /  24 °C 54.1 °F /  12.3 °C 30.2in /  1021.2hPa North 3.5mph /  5.6km/h 8mph /  12.9km/h 48% 0in /  0.0mm
14:24 75.6 °F /  24.2 °C 54 °F /  12.2 °C 30.2in /  1021.1hPa NNO 4.3mph /  6.9km/h 6.4mph /  10.3km/h 47.3% 0in /  0.0mm
14:29 75.6 °F /  24.2 °C 54.3 °F /  12.4 °C 30.2in /  1021.1hPa ENE 3.9mph /  6.2km/h 7.4mph /  11.9km/h 47.6% 0in /  0.0mm
14:34 75.9 °F /  24.4 °C 54.5 °F /  12.5 °C 30.2in /  1021.1hPa ENE 2.9mph /  4.7km/h 11.4mph /  18.3km/h 47.4% 0in /  0.0mm
14:39 75.7 °F /  24.3 °C 54.3 °F /  12.4 °C 30.1in /  1020.8hPa ENE 3.4mph /  5.5km/h 12mph /  19.3km/h 47.4% 0in /  0.0mm
14:44 75.7 °F /  24.3 °C 54.3 °F /  12.4 °C 30.1in /  1020.7hPa NNE 4.7mph /  7.6km/h 9mph /  14.5km/h 47.3% 0in /  0.0mm
14:49 75.6 °F /  24.2 °C 53.8 °F /  12.1 °C 30.1in /  1020.7hPa North 4.6mph /  7.4km/h 9mph /  14.5km/h 47.1% 0in /  0.0mm
14:54 75.4 °F /  24.1 °C 54 °F /  12.2 °C 30.1in /  1020.6hPa NNO 4.3mph /  6.9km/h 7mph /  11.3km/h 47.5% 0in /  0.0mm
14:59 75.9 °F /  24.4 °C 54.1 °F /  12.3 °C 30.1in /  1020.6hPa NE 4.2mph /  6.7km/h 8.1mph /  13km/h 46.8% 0in /  0.0mm
15:04 76.5 °F /  24.7 °C 54.1 °F /  12.3 °C 30.1in /  1020.6hPa Este 4mph /  6.5km/h 8.5mph /  13.7km/h 46% 0in /  0.0mm
15:09 76.5 °F /  24.7 °C 54.1 °F /  12.3 °C 30.1in /  1020.4hPa Este 4.2mph /  6.8km/h 9mph /  14.5km/h 46% 0in /  0.0mm
15:14 76.1 °F /  24.5 °C 53.8 °F /  12.1 °C 30.1in /  1020.4hPa NE 4.7mph /  7.6km/h 9.2mph /  14.8km/h 46% 0in /  0.0mm
15:19 76.3 °F /  24.6 °C 54.5 °F /  12.5 °C 30.1in /  1020.4hPa ENE 4.5mph /  7.2km/h 9.7mph /  15.6km/h 47% 0in /  0.0mm
15:24 76.8 °F /  24.9 °C 54.5 °F /  12.5 °C 30.1in /  1020.0hPa ESE 4mph /  6.5km/h 11.5mph /  18.5km/h 45.9% 0in /  0.0mm
15:29 76.8 °F /  24.9 °C 54.1 °F /  12.3 °C 30.1in /  1020.0hPa ESE 4.5mph /  7.2km/h 12.5mph /  20.1km/h 45.5% 0in /  0.0mm
15:34 76.6 °F /  24.8 °C 54.3 °F /  12.4 °C 30.1in /  1020.0hPa ESE 5.4mph /  8.7km/h 13mph /  20.9km/h 46% 0in /  0.0mm
15:39 76.6 °F /  24.8 °C 54.3 °F /  12.4 °C 30.1in /  1019.8hPa Sur 6.3mph /  10.1km/h 15.2mph /  24.5km/h 46% 0in /  0.0mm
15:44 76.8 °F /  24.9 °C 54.5 °F /  12.5 °C 30.1in /  1019.8hPa SSE 8.1mph /  13km/h 15mph /  24.1km/h 46% 0in /  0.0mm
15:49 77 °F /  25 °C 54.7 °F /  12.6 °C 30.1in /  1019.8hPa NE 7.2mph /  11.6km/h 12mph /  19.3km/h 46% 0in /  0.0mm
15:54 77.2 °F /  25.1 °C 54.7 °F /  12.6 °C 30.1in /  1019.6hPa SE 5.2mph /  8.4km/h 12.3mph /  19.8km/h 45.7% 0in /  0.0mm
15:59 77 °F /  25 °C 54.5 °F /  12.5 °C 30.1in /  1019.6hPa Este 5.3mph /  8.5km/h 12mph /  19.3km/h 45.6% 0in /  0.0mm
16:04 77.2 °F /  25.1 °C 54.5 °F /  12.5 °C 30.1in /  1019.6hPa ESE 5.4mph /  8.7km/h 12mph /  19.3km/h 45.6% 0in /  0.0mm
16:09 77.2 °F /  25.1 °C 54.7 °F /  12.6 °C 30.1in /  1019.4hPa ESE 5.7mph /  9.1km/h 13.7mph /  22km/h 45.8% 0in /  0.0mm
16:14 77 °F /  25 °C 54.7 °F /  12.6 °C 30.1in /  1019.4hPa Este 6.2mph /  10km/h 14mph /  22.5km/h 45.9% 0in /  0.0mm
16:19 77 °F /  25 °C 54.7 °F /  12.6 °C 30.1in /  1019.4hPa Este 6.3mph /  10.1km/h 14mph /  22.5km/h 46% 0in /  0.0mm
16:24 77 °F /  25 °C 54.5 °F /  12.5 °C 30.1in /  1019.1hPa Este 6.4mph /  10.3km/h 18.4mph /  29.6km/h 45.7% 0in /  0.0mm
16:29 76.6 °F /  24.8 °C 54.3 °F /  12.4 °C 30.1in /  1019.1hPa Este 6.9mph /  11.1km/h 18mph /  29km/h 46% 0in /  0.0mm
16:34 76.5 °F /  24.7 °C 54.1 °F /  12.3 °C 30.1in /  1019.1hPa Este 8.1mph /  13km/h 15mph /  24.1km/h 46% 0in /  0.0mm
16:39 76.5 °F /  24.7 °C 54.1 °F /  12.3 °C 30.1in /  1018.9hPa ENE 8mph /  12.8km/h 15.9mph /  25.6km/h 46% 0in /  0.0mm
16:44 76.5 °F /  24.7 °C 54.1 °F /  12.3 °C 30.1in /  1018.9hPa ESE 7.6mph /  12.2km/h 16.1mph /  25.9km/h 46% 0in /  0.0mm
16:49 76.5 °F /  24.7 °C 54.1 °F /  12.3 °C 30.1in /  1018.9hPa ESE 8.3mph /  13.3km/h 16.1mph /  25.9km/h 46% 0in /  0.0mm
16:54 76.6 °F /  24.8 °C 54 °F /  12.2 °C 30.1in /  1018.9hPa ESE 9.7mph /  15.6km/h 16mph /  25.7km/h 45.5% 0in /  0.0mm
16:59 76.5 °F /  24.7 °C 54 °F /  12.2 °C 30.1in /  1018.9hPa SE 9.1mph /  14.6km/h 16.1mph /  25.9km/h 45.8% 0in /  0.0mm
17:04 76.1 °F /  24.5 °C 54 °F /  12.2 °C 30.1in /  1018.9hPa ESE 8.1mph /  13km/h 16mph /  25.7km/h 46.2% 0in /  0.0mm
17:09 75.9 °F /  24.4 °C 54 °F /  12.2 °C 30.1in /  1018.6hPa ESE 8.7mph /  14km/h 17.3mph /  27.8km/h 46.5% 0in /  0.0mm
17:14 75.9 °F /  24.4 °C 53.8 °F /  12.1 °C 30.1in /  1018.6hPa SE 10mph /  16.1km/h 17mph /  27.4km/h 46% 0in /  0.0mm
17:19 75.7 °F /  24.3 °C 53.8 °F /  12.1 °C 30.1in /  1018.6hPa ESE 10mph /  16.1km/h 16.1mph /  25.9km/h 46.4% 0in /  0.0mm
17:24 75.9 °F /  24.4 °C 53.8 °F /  12.1 °C 30.1in /  1018.5hPa ESE 10mph /  16.1km/h 17.3mph /  27.8km/h 46.4% 0in /  0.0mm
17:29 75.6 °F /  24.2 °C 53.8 °F /  12.1 °C 30.1in /  1018.5hPa ESE 9.9mph /  15.9km/h 17.5mph /  28.2km/h 46.9% 0in /  0.0mm
17:34 75.6 °F /  24.2 °C 53.8 °F /  12.1 °C 30.1in /  1018.5hPa ESE 9.7mph /  15.6km/h 17.3mph /  27.8km/h 47% 0in /  0.0mm
17:39 75.6 °F /  24.2 °C 53.6 °F /  12 °C 30.1in /  1018.5hPa ESE 9.8mph /  15.8km/h 17.5mph /  28.2km/h 46.6% 0in /  0.0mm
17:44 75 °F /  23.9 °C 53.4 °F /  11.9 °C 30.1in /  1018.5hPa Este 10.2mph /  16.4km/h 17.3mph /  27.8km/h 47% 0in /  0.0mm
17:49 74.8 °F /  23.8 °C 53.4 °F /  11.9 °C 30.1in /  1018.5hPa ESE 10.2mph /  16.4km/h 16.1mph /  25.9km/h 47% 0in /  0.0mm
17:54 75 °F /  23.9 °C 53.4 °F /  11.9 °C 30.1in /  1018.5hPa Este 10.2mph /  16.4km/h 16mph /  25.7km/h 47% 0in /  0.0mm
17:59 75.2 °F /  24 °C 53.6 °F /  12 °C 30.1in /  1018.5hPa ESE 10mph /  16.1km/h 15mph /  24.1km/h 47% 0in /  0.0mm
18:04 75.4 °F /  24.1 °C 53.4 °F /  11.9 °C 30.1in /  1018.5hPa Este 9.7mph /  15.6km/h 15mph /  24.1km/h 46.7% 0in /  0.0mm
18:09 75 °F /  23.9 °C 53.4 °F /  11.9 °C 30.1in /  1018.4hPa ESE 9.6mph /  15.4km/h 17.3mph /  27.8km/h 47% 0in /  0.0mm
18:14 74.8 °F /  23.8 °C 53.4 °F /  11.9 °C 30.1in /  1018.4hPa ESE 9.2mph /  14.8km/h 17mph /  27.4km/h 47.1% 0in /  0.0mm
18:19 75 °F /  23.9 °C 53.4 °F /  11.9 °C 30.1in /  1018.4hPa ESE 9.1mph /  14.6km/h 17mph /  27.4km/h 47% 0in /  0.0mm
18:24 74.8 °F /  23.8 °C 53.4 °F /  11.9 °C 30.1in /  1018.4hPa ESE 8.7mph /  14km/h 16.1mph /  25.9km/h 47.2% 0in /  0.0mm
18:29 74.8 °F /  23.8 °C 53.4 °F /  11.9 °C 30.1in /  1018.4hPa ESE 9.1mph /  14.7km/h 16.1mph /  25.9km/h 47.2% 0in /  0.0mm
18:34 74.8 °F /  23.8 °C 53.2 °F /  11.8 °C 30.1in /  1018.4hPa ESE 10mph /  16.1km/h 16.1mph /  25.9km/h 47% 0in /  0.0mm
18:39 75 °F /  23.9 °C 53.4 °F /  11.9 °C 30.1in /  1018.4hPa ESE 9.6mph /  15.4km/h 16mph /  25.7km/h 47% 0in /  0.0mm
18:44 75 °F /  23.9 °C 53.2 °F /  11.8 °C 30.1in /  1018.4hPa ESE 8.5mph /  13.7km/h 14.5mph /  23.3km/h 46.6% 0in /  0.0mm
18:49 74.7 °F /  23.7 °C 53.1 °F /  11.7 °C 30.1in /  1018.4hPa ESE 8.9mph /  14.3km/h 15mph /  24.1km/h 47% 0in /  0.0mm
18:54 74.7 °F /  23.7 °C 53.1 °F /  11.7 °C 30.1in /  1018.3hPa ESE 9.7mph /  15.6km/h 16.1mph /  25.9km/h 47% 0in /  0.0mm
18:59 74.7 °F /  23.7 °C 53.1 °F /  11.7 °C 30.1in /  1018.3hPa ESE 9.5mph /  15.3km/h 16mph /  25.7km/h 47% 0in /  0.0mm
19:04 74.7 °F /  23.7 °C 53.1 °F /  11.7 °C 30.1in /  1018.3hPa ESE 9.2mph /  14.8km/h 14mph /  22.5km/h 47% 0in /  0.0mm
19:09 74.5 °F /  23.6 °C 52.9 °F /  11.6 °C 30.1in /  1018.1hPa ESE 9.1mph /  14.6km/h 13mph /  20.9km/h 47% 0in /  0.0mm
19:14 74.7 °F /  23.7 °C 53.2 °F /  11.8 °C 30.1in /  1018.1hPa ESE 8.7mph /  14km/h 14mph /  22.5km/h 47.3% 0in /  0.0mm
19:19 74.7 °F /  23.7 °C 53.1 °F /  11.7 °C 30.1in /  1018.1hPa ESE 8.3mph /  13.4km/h 15.2mph /  24.5km/h 47% 0in /  0.0mm
19:24 74.3 °F /  23.5 °C 53.2 °F /  11.8 °C 30.1in /  1017.9hPa ESE 7.4mph /  11.9km/h 15mph /  24.1km/h 47.6% 0in /  0.0mm
19:29 74.1 °F /  23.4 °C 53.6 °F /  12 °C 30.1in /  1017.9hPa ESE 7.8mph /  12.5km/h 15.6mph /  25.1km/h 48.8% 0in /  0.0mm
19:34 73.9 °F /  23.3 °C 53.4 °F /  11.9 °C 30.1in /  1017.9hPa ESE 8.7mph /  14km/h 16.1mph /  25.9km/h 49% 0in /  0.0mm
19:39 73.8 °F /  23.2 °C 53.8 °F /  12.1 °C 30.1in /  1017.8hPa ESE 8.4mph /  13.5km/h 16mph /  25.7km/h 49.6% 0in /  0.0mm
19:44 73.8 °F /  23.2 °C 54 °F /  12.2 °C 30.1in /  1017.8hPa ESE 7.6mph /  12.2km/h 15mph /  24.1km/h 50% 0in /  0.0mm
19:49 73.2 °F /  22.9 °C 53.8 °F /  12.1 °C 30.1in /  1017.8hPa ESE 7.6mph /  12.2km/h 15mph /  24.1km/h 50.6% 0in /  0.0mm
19:54 73 °F /  22.8 °C 53.8 °F /  12.1 °C 30.1in /  1017.8hPa ESE 7.6mph /  12.2km/h 14mph /  22.5km/h 51% 0in /  0.0mm
19:59 72.7 °F /  22.6 °C 53.8 °F /  12.1 °C 30.1in /  1017.8hPa ESE 8mph /  12.8km/h 14mph /  22.5km/h 51.6% 0in /  0.0mm
20:04 72.5 °F /  22.5 °C 53.8 °F /  12.1 °C 30.1in /  1017.8hPa ESE 8.5mph /  13.7km/h 12.7mph /  20.4km/h 52% 0in /  0.0mm
20:09 72.1 °F /  22.3 °C 53.6 °F /  12 °C 30.1in /  1017.7hPa ESE 8.4mph /  13.5km/h 13mph /  20.9km/h 52% 0in /  0.0mm
20:14 72.3 °F /  22.4 °C 53.8 °F /  12.1 °C 30.1in /  1017.7hPa ESE 8.1mph /  13km/h 12mph /  19.3km/h 52.1% 0in /  0.0mm
20:19 72.1 °F /  22.3 °C 54.1 °F /  12.3 °C 30.1in /  1017.8hPa ESE 7.6mph /  12.2km/h 12mph /  19.3km/h 52.9% 0in /  0.0mm
20:24 72.1 °F /  22.3 °C 54 °F /  12.2 °C 30.1in /  1017.8hPa ESE 6.4mph /  10.3km/h 11.2mph /  18km/h 53% 0in /  0.0mm
20:29 71.8 °F /  22.1 °C 54 °F /  12.2 °C 30.1in /  1017.8hPa ESE 6.4mph /  10.3km/h 12mph /  19.3km/h 53.5% 0in /  0.0mm
20:34 71.4 °F /  21.9 °C 54 °F /  12.2 °C 30.1in /  1017.8hPa ESE 6.4mph /  10.3km/h 12.3mph /  19.8km/h 54% 0in /  0.0mm
20:39 71.2 °F /  21.8 °C 54 °F /  12.2 °C 30.1in /  1017.8hPa ESE 6.3mph /  10.1km/h 12mph /  19.3km/h 54.4% 0in /  0.0mm
20:44 71.1 °F /  21.7 °C 54.1 °F /  12.3 °C 30.1in /  1017.8hPa ESE 5.9mph /  9.5km/h 11.2mph /  18km/h 55% 0in /  0.0mm
20:49 70.9 °F /  21.6 °C 54 °F /  12.2 °C 30.1in /  1017.9hPa ESE 6mph /  9.6km/h 11mph /  17.7km/h 55% 0in /  0.0mm
20:54 70.7 °F /  21.5 °C 54 °F /  12.2 °C 30.1in /  1017.9hPa ESE 6.2mph /  10km/h 11mph /  17.7km/h 55.8% 0in /  0.0mm
20:59 70.3 °F /  21.3 °C 54 °F /  12.2 °C 30.1in /  1017.9hPa ESE 5.9mph /  9.5km/h 9.2mph /  14.8km/h 56% 0in /  0.0mm
21:04 70.2 °F /  21.2 °C 54 °F /  12.2 °C 30.1in /  1018.0hPa Este 5.4mph /  8.7km/h 9mph /  14.5km/h 56.6% 0in /  0.0mm
21:09 70 °F /  21.1 °C 54 °F /  12.2 °C 30.1in /  1018.0hPa ESE 5.2mph /  8.4km/h 9mph /  14.5km/h 57% 0in /  0.0mm
21:14 69.6 °F /  20.9 °C 54.1 °F /  12.3 °C 30.1in /  1018.0hPa ESE 4.7mph /  7.6km/h 8.1mph /  13km/h 57.8% 0in /  0.0mm
21:19 69.4 °F /  20.8 °C 54.3 °F /  12.4 °C 30.1in /  1018.0hPa ESE 4.7mph /  7.6km/h 8.5mph /  13.7km/h 58.9% 0in /  0.0mm
21:24 69.3 °F /  20.7 °C 54.3 °F /  12.4 °C 30.1in /  1017.9hPa Este 4.7mph /  7.6km/h 9mph /  14.5km/h 59% 0in /  0.0mm
21:29 68.9 °F /  20.5 °C 54.3 °F /  12.4 °C 30.1in /  1017.9hPa Este 4.5mph /  7.2km/h 8mph /  12.9km/h 59.5% 0in /  0.0mm
21:34 68.7 °F /  20.4 °C 54.3 °F /  12.4 °C 30.1in /  1017.9hPa ENE 4mph /  6.5km/h 5mph /  8km/h 60% 0in /  0.0mm
21:39 68.7 °F /  20.4 °C 54.3 °F /  12.4 °C 30.1in /  1017.9hPa NE 3.7mph /  5.9km/h 6.9mph /  11.1km/h 60% 0in /  0.0mm
21:44 68.5 °F /  20.3 °C 54.1 °F /  12.3 °C 30.1in /  1017.9hPa NE 2.9mph /  4.7km/h 7mph /  11.3km/h 60.1% 0in /  0.0mm
21:49 68.4 °F /  20.2 °C 54.3 °F /  12.4 °C 30.1in /  1018.0hPa NE 3.3mph /  5.3km/h 6.9mph /  11.1km/h 61% 0in /  0.0mm
21:54 68 °F /  20 °C 54.1 °F /  12.3 °C 30.1in /  1018.0hPa NNE 4.3mph /  6.9km/h 7mph /  11.3km/h 61% 0in /  0.0mm
21:59 67.8 °F /  19.9 °C 54 °F /  12.2 °C 30.1in /  1018.0hPa NNE 4.2mph /  6.7km/h 6.9mph /  11.1km/h 61% 0in /  0.0mm
22:04 67.6 °F /  19.8 °C 54.1 °F /  12.3 °C 30.1in /  1018.1hPa NNE 4mph /  6.5km/h 7.4mph /  11.9km/h 62% 0in /  0.0mm
22:09 67.5 °F /  19.7 °C 54.1 °F /  12.3 °C 30.1in /  1018.1hPa NE 4.3mph /  7km/h 10.4mph /  16.7km/h 62.6% 0in /  0.0mm
22:14 66.9 °F /  19.4 °C 54 °F /  12.2 °C 30.1in /  1018.1hPa NE 5.2mph /  8.4km/h 10mph /  16.1km/h 63% 0in /  0.0mm
22:19 66.7 °F /  19.3 °C 54.1 °F /  12.3 °C 30.1in /  1018.2hPa NE 5.3mph /  8.5km/h 9mph /  14.5km/h 64% 0in /  0.0mm
22:24 66.6 °F /  19.2 °C 54.1 °F /  12.3 °C 30.1in /  1018.2hPa NE 5.4mph /  8.7km/h 7mph /  11.3km/h 64% 0in /  0.0mm
22:29 66.6 °F /  19.2 °C 54 °F /  12.2 °C 30.1in /  1018.2hPa NE 5mph /  8km/h 7mph /  11.3km/h 64% 0in /  0.0mm
22:34 66.4 °F /  19.1 °C 54.1 °F /  12.3 °C 30.1in /  1018.2hPa NE 4mph /  6.5km/h 8.1mph /  13km/h 64.6% 0in /  0.0mm
22:39 65.8 °F /  18.8 °C 54.1 °F /  12.3 °C 30.1in /  1018.2hPa NE 4.4mph /  7.1km/h 8.1mph /  13km/h 65.8% 0in /  0.0mm
22:44 65.8 °F /  18.8 °C 54.1 °F /  12.3 °C 30.1in /  1018.2hPa NE 5.4mph /  8.7km/h 7mph /  11.3km/h 66% 0in /  0.0mm
22:49 65.7 °F /  18.7 °C 54.1 °F /  12.3 °C 30.1in /  1018.4hPa North 5.1mph /  8.2km/h 7mph /  11.3km/h 66.4% 0in /  0.0mm
22:54 65.7 °F /  18.7 °C 54.3 °F /  12.4 °C 30.1in /  1018.4hPa NNE 4.3mph /  6.9km/h 6mph /  9.7km/h 67% 0in /  0.0mm
22:59 65.5 °F /  18.6 °C 54.1 °F /  12.3 °C 30.1in /  1018.4hPa NE 4.3mph /  6.9km/h 6.9mph /  11.1km/h 67% 0in /  0.0mm
23:04 65.5 °F /  18.6 °C 54.1 °F /  12.3 °C 30.1in /  1018.5hPa NE 4.3mph /  6.9km/h 7mph /  11.3km/h 67% 0in /  0.0mm
23:09 65.5 °F /  18.6 °C 54.1 °F /  12.3 °C 30.1in /  1018.5hPa NE 4.3mph /  6.9km/h 7mph /  11.3km/h 67% 0in /  0.0mm
23:14 65.5 °F /  18.6 °C 54.5 °F /  12.5 °C 30.1in /  1018.5hPa NE 4.3mph /  6.9km/h 7mph /  11.3km/h 67.6% 0in /  0.0mm
23:19 65.3 °F /  18.5 °C 54.5 °F /  12.5 °C 30.1in /  1018.7hPa NE 4.1mph /  6.6km/h 6.2mph /  10km/h 68% 0in /  0.0mm
23:24 65.1 °F /  18.4 °C 54.3 °F /  12.4 °C 30.1in /  1018.7hPa NE 3.6mph /  5.8km/h 6mph /  9.7km/h 68% 0in /  0.0mm
23:29 65.3 °F /  18.5 °C 54.9 °F /  12.7 °C 30.1in /  1018.7hPa ENE 3.2mph /  5.2km/h 6mph /  9.7km/h 68.9% 0in /  0.0mm
23:34 65.5 °F /  18.6 °C 54.7 °F /  12.6 °C 30.1in /  1018.8hPa ESE 2.4mph /  3.9km/h 6mph /  9.7km/h 68.1% 0in /  0.0mm
23:39 65.7 °F /  18.7 °C 54.5 °F /  12.5 °C 30.1in /  1018.8hPa SE 2.6mph /  4.2km/h 7.4mph /  11.9km/h 67.4% 0in /  0.0mm
23:44 65.8 °F /  18.8 °C 55 °F /  12.8 °C 30.1in /  1018.8hPa ESE 3.1mph /  5km/h 7.6mph /  12.2km/h 68% 0in /  0.0mm
23:49 65.8 °F /  18.8 °C 55 °F /  12.8 °C 30.1in /  1018.8hPa ESE 3.4mph /  5.4km/h 8.1mph /  13km/h 68% 0in /  0.0mm
23:54 65.8 °F /  18.8 °C 55 °F /  12.8 °C 30.1in /  1018.8hPa ESE 4mph /  6.5km/h 7mph /  11.3km/h 68% 0in /  0.0mm
23:59 65.8 °F /  18.8 °C 55 °F /  12.8 °C 30.1in /  1018.8hPa ESE 4mph /  6.5km/h 7mph /  11.3km/h 68% 0in /  0.0mm
Murcia-Puente Tocinos, España
Compliments of Weather Underground - 3 mb

La estación de MeteoMurcia.com, publica sus datos en los siguientes proyectos:

Weather Underground PWS IMURCIAP2 Meteoclimatic www.awekas.at

W3Counter
Web Analytics